sensor_id;sensor_type;location;lat;lon;timestamp;pressure;altitude;pressure_sealevel;temperature;humidity
48015;BME280;33780;51.034;7.120;2024-01-16T00:00:06;100058.44;;;2.73;76.11
48015;BME280;33780;51.034;7.120;2024-01-16T00:02:33;100053.06;;;2.75;76.00
48015;BME280;33780;51.034;7.120;2024-01-16T00:04:58;100058.44;;;2.73;76.19
48015;BME280;33780;51.034;7.120;2024-01-16T00:07:23;100062.78;;;2.74;76.29
48015;BME280;33780;51.034;7.120;2024-01-16T00:09:49;100045.13;;;2.75;76.22
48015;BME280;33780;51.034;7.120;2024-01-16T00:12:17;100061.09;;;2.73;75.88
48015;BME280;33780;51.034;7.120;2024-01-16T00:14:43;100052.31;;;2.72;76.03
48015;BME280;33780;51.034;7.120;2024-01-16T00:17:08;100061.09;;;2.73;76.10
48015;BME280;33780;51.034;7.120;2024-01-16T00:19:34;100069.09;;;2.71;76.17
48015;BME280;33780;51.034;7.120;2024-01-16T00:21:59;100059.38;;;2.72;76.43
48015;BME280;33780;51.034;7.120;2024-01-16T00:24:25;100060.13;;;2.74;76.17
48015;BME280;33780;51.034;7.120;2024-01-16T00:26:51;100060.97;;;2.75;76.32
48015;BME280;33780;51.034;7.120;2024-01-16T00:29:16;100066.38;;;2.73;76.38
48015;BME280;33780;51.034;7.120;2024-01-16T00:31:41;100067.47;;;2.69;76.04
48015;BME280;33780;51.034;7.120;2024-01-16T00:34:07;100064.19;;;2.65;76.41
48015;BME280;33780;51.034;7.120;2024-01-16T00:36:32;100072.97;;;2.66;76.17
48015;BME280;33780;51.034;7.120;2024-01-16T00:38:58;100070.22;;;2.67;76.11
48015;BME280;33780;51.034;7.120;2024-01-16T00:41:23;100073.72;;;2.68;76.24
48015;BME280;33780;51.034;7.120;2024-01-16T00:43:50;100080.69;;;2.69;76.26
48015;BME280;33780;51.034;7.120;2024-01-16T00:46:15;100083.25;;;2.70;76.45
48015;BME280;33780;51.034;7.120;2024-01-16T00:48:40;100075.25;;;2.72;76.68
48015;BME280;33780;51.034;7.120;2024-01-16T00:51:06;100077.97;;;2.70;76.14
48015;BME280;33780;51.034;7.120;2024-01-16T00:53:31;100079.94;;;2.67;76.01
48015;BME280;33780;51.034;7.120;2024-01-16T00:55:56;100080.88;;;2.66;75.98
48015;BME280;33780;51.034;7.120;2024-01-16T00:58:22;100083.63;;;2.64;76.29
48015;BME280;33780;51.034;7.120;2024-01-16T01:00:47;100086.28;;;2.64;76.13
48015;BME280;33780;51.034;7.120;2024-01-16T01:03:13;100087.88;;;2.67;76.75
48015;BME280;33780;51.034;7.120;2024-01-16T01:05:38;100089.56;;;2.68;76.56
48015;BME280;33780;51.034;7.120;2024-01-16T01:08:04;100090.34;;;2.70;76.45
48015;BME280;33780;51.034;7.120;2024-01-16T01:10:29;100098.16;;;2.71;76.26
48015;BME280;33780;51.034;7.120;2024-01-16T01:12:54;100099.75;;;2.74;76.29
48015;BME280;33780;51.034;7.120;2024-01-16T01:15:20;100103.16;;;2.76;76.15
48015;BME280;33780;51.034;7.120;2024-01-16T01:17:48;100104.00;;;2.77;76.50
48015;BME280;33780;51.034;7.120;2024-01-16T01:20:14;100112.88;;;2.76;76.50
48015;BME280;33780;51.034;7.120;2024-01-16T01:22:40;100112.03;;;2.75;76.13
48015;BME280;33780;51.034;7.120;2024-01-16T01:25:06;100108.44;;;2.76;76.45
48015;BME280;33780;51.034;7.120;2024-01-16T01:27:31;100129.56;;;2.76;76.05
48015;BME280;33780;51.034;7.120;2024-01-16T01:29:57;100129.56;;;2.76;76.05
48015;BME280;33780;51.034;7.120;2024-01-16T01:32:23;100122.50;;;2.77;76.20
48015;BME280;33780;51.034;7.120;2024-01-16T01:34:48;100122.50;;;2.77;75.92
48015;BME280;33780;51.034;7.120;2024-01-16T01:37:13;100131.25;;;2.77;76.48
48015;BME280;33780;51.034;7.120;2024-01-16T01:39:39;100123.44;;;2.76;75.98
48015;BME280;33780;51.034;7.120;2024-01-16T01:42:04;100124.38;;;2.75;75.64
48015;BME280;33780;51.034;7.120;2024-01-16T01:44:30;100124.47;;;2.73;75.89
48015;BME280;33780;51.034;7.120;2024-01-16T01:46:56;100134.19;;;2.72;75.50
48015;BME280;33780;51.034;7.120;2024-01-16T01:49:22;100129.88;;;2.71;75.99
48015;BME280;33780;51.034;7.120;2024-01-16T01:51:48;100128.91;;;2.72;76.05
48015;BME280;33780;51.034;7.120;2024-01-16T01:54:15;100137.78;;;2.71;75.81
48015;BME280;33780;51.034;7.120;2024-01-16T01:56:44;100130.03;;;2.68;75.70
48015;BME280;33780;51.034;7.120;2024-01-16T01:59:09;100127.50;;;2.67;75.87
48015;BME280;33780;51.034;7.120;2024-01-16T02:01:35;100131.94;;;2.66;76.32
48015;BME280;33780;51.034;7.120;2024-01-16T02:04:01;100131.06;;;2.66;75.66
48015;BME280;33780;51.034;7.120;2024-01-16T02:06:27;100134.88;;;2.62;75.79
48015;BME280;33780;51.034;7.120;2024-01-16T02:08:52;100135.91;;;2.59;75.75
48015;BME280;33780;51.034;7.120;2024-01-16T02:11:18;100135.16;;;2.57;75.86
48015;BME280;33780;51.034;7.120;2024-01-16T02:13:43;100135.34;;;2.54;76.10
48015;BME280;33780;51.034;7.120;2024-01-16T02:16:22;100134.50;;;2.54;76.23
48015;BME280;33780;51.034;7.120;2024-01-16T02:18:48;100135.44;;;2.53;76.29
48015;BME280;33780;51.034;7.120;2024-01-16T02:21:17;100139.88;;;2.52;76.28
48015;BME280;33780;51.034;7.120;2024-01-16T02:23:44;100138.00;;;2.54;76.01
48015;BME280;33780;51.034;7.120;2024-01-16T02:26:09;100142.31;;;2.55;76.49
48015;BME280;33780;51.034;7.120;2024-01-16T02:28:34;100135.34;;;2.54;76.33
48015;BME280;33780;51.034;7.120;2024-01-16T02:31:00;100142.53;;;2.52;76.02
48015;BME280;33780;51.034;7.120;2024-01-16T02:33:25;100139.88;;;2.52;76.65
48015;BME280;33780;51.034;7.120;2024-01-16T02:35:50;100137.25;;;2.52;76.14
48015;BME280;33780;51.034;7.120;2024-01-16T02:38:16;100133.75;;;2.52;76.53
48015;BME280;33780;51.034;7.120;2024-01-16T02:40:41;100134.66;;;2.51;76.64
48015;BME280;33780;51.034;7.120;2024-01-16T02:43:06;100139.03;;;2.52;76.79
48015;BME280;33780;51.034;7.120;2024-01-16T02:45:32;100137.91;;;2.56;76.77
48015;BME280;33780;51.034;7.120;2024-01-16T02:47:57;100136.09;;;2.56;76.50
48015;BME280;33780;51.034;7.120;2024-01-16T02:50:23;100132.50;;;2.57;76.45
48015;BME280;33780;51.034;7.120;2024-01-16T02:52:48;100141.28;;;2.58;76.55
48015;BME280;33780;51.034;7.120;2024-01-16T02:55:13;100134.22;;;2.58;76.44
48015;BME280;33780;51.034;7.120;2024-01-16T02:57:39;100143.72;;;2.61;76.85
48015;BME280;33780;51.034;7.120;2024-01-16T03:00:05;100139.28;;;2.61;76.60
48015;BME280;33780;51.034;7.120;2024-01-16T03:02:30;100134.13;;;2.60;76.60
48015;BME280;33780;51.034;7.120;2024-01-16T03:04:56;100142.03;;;2.60;76.39
48015;BME280;33780;51.034;7.120;2024-01-16T03:07:21;100139.41;;;2.60;76.43
48015;BME280;33780;51.034;7.120;2024-01-16T03:09:46;100139.59;;;2.57;76.42
48015;BME280;33780;51.034;7.120;2024-01-16T03:12:11;100140.63;;;2.54;75.99
48015;BME280;33780;51.034;7.120;2024-01-16T03:14:37;100141.56;;;2.53;76.40
48015;BME280;33780;51.034;7.120;2024-01-16T03:17:04;100141.56;;;2.53;76.23
48015;BME280;33780;51.034;7.120;2024-01-16T03:19:29;100133.75;;;2.52;76.06
48015;BME280;33780;51.034;7.120;2024-01-16T03:21:55;100136.47;;;2.50;76.16
48015;BME280;33780;51.034;7.120;2024-01-16T03:24:20;100134.66;;;2.51;75.85
48015;BME280;33780;51.034;7.120;2024-01-16T03:26:46;100139.19;;;2.49;75.44
48015;BME280;33780;51.034;7.120;2024-01-16T03:29:11;100136.56;;;2.49;75.90
48015;BME280;33780;51.034;7.120;2024-01-16T03:31:37;100138.53;;;2.45;75.56
48015;BME280;33780;51.034;7.120;2024-01-16T03:34:02;100139.50;;;2.44;76.34
48015;BME280;33780;51.034;7.120;2024-01-16T03:36:27;100136.00;;;2.43;76.10
48015;BME280;33780;51.034;7.120;2024-01-16T03:38:53;100138.53;;;2.45;76.56
48015;BME280;33780;51.034;7.120;2024-01-16T03:41:18;100133.16;;;2.47;76.11
48015;BME280;33780;51.034;7.120;2024-01-16T03:43:43;100137.50;;;2.48;76.54
48015;BME280;33780;51.034;7.120;2024-01-16T03:46:12;100133.91;;;2.49;76.31
48015;BME280;33780;51.034;7.120;2024-01-16T03:48:38;100130.22;;;2.51;76.48
48015;BME280;33780;51.034;7.120;2024-01-16T03:51:03;100134.59;;;2.52;76.29
48015;BME280;33780;51.034;7.120;2024-01-16T03:53:29;100127.53;;;2.53;76.49
48015;BME280;33780;51.034;7.120;2024-01-16T03:55:54;100137.25;;;2.52;76.17
48015;BME280;33780;51.034;7.120;2024-01-16T03:58:20;100132.88;;;2.51;76.34
48015;BME280;33780;51.034;7.120;2024-01-16T04:00:45;100124.94;;;2.51;76.15
48015;BME280;33780;51.034;7.120;2024-01-16T04:03:11;100131.19;;;2.50;76.41
48015;BME280;33780;51.034;7.120;2024-01-16T04:05:36;100129.38;;;2.51;76.03
48015;BME280;33780;51.034;7.120;2024-01-16T04:08:02;100125.06;;;2.50;76.43
48015;BME280;33780;51.034;7.120;2024-01-16T04:10:27;100118.75;;;2.52;76.25
48015;BME280;33780;51.034;7.120;2024-01-16T04:12:52;100121.47;;;2.51;76.60
48015;BME280;33780;51.034;7.120;2024-01-16T04:15:18;100123.09;;;2.53;76.25
48015;BME280;33780;51.034;7.120;2024-01-16T04:17:43;100121.31;;;2.54;76.32
48015;BME280;33780;51.034;7.120;2024-01-16T04:20:09;100117.81;;;2.53;76.29
48015;BME280;33780;51.034;7.120;2024-01-16T04:22:35;100117.81;;;2.53;76.00
48015;BME280;33780;51.034;7.120;2024-01-16T04:25:00;100127.44;;;2.54;76.17
48015;BME280;33780;51.034;7.120;2024-01-16T04:27:26;100126.47;;;2.55;75.89
48015;BME280;33780;51.034;7.120;2024-01-16T04:29:51;100125.44;;;2.58;76.06
48015;BME280;33780;51.034;7.120;2024-01-16T04:32:17;100127.44;;;2.54;75.66
48015;BME280;33780;51.034;7.120;2024-01-16T04:34:42;100135.50;;;2.51;76.30
48015;BME280;33780;51.034;7.120;2024-01-16T04:37:07;100125.53;;;2.42;76.17
48015;BME280;33780;51.034;7.120;2024-01-16T04:39:33;100128.28;;;2.40;75.95
48015;BME280;33780;51.034;7.120;2024-01-16T04:41:58;100128.28;;;2.40;76.03
48015;BME280;33780;51.034;7.120;2024-01-16T04:44:23;100132.50;;;2.43;76.50
48015;BME280;33780;51.034;7.120;2024-01-16T04:46:49;100133.25;;;2.45;76.13
48015;BME280;33780;51.034;7.120;2024-01-16T04:49:14;100133.25;;;2.45;76.02
48015;BME280;33780;51.034;7.120;2024-01-16T04:51:39;100129.78;;;2.45;76.34
48015;BME280;33780;51.034;7.120;2024-01-16T04:54:05;100132.41;;;2.45;76.36
48015;BME280;33780;51.034;7.120;2024-01-16T04:56:30;100133.25;;;2.45;76.03
48015;BME280;33780;51.034;7.120;2024-01-16T04:58:55;100127.03;;;2.46;76.34
48015;BME280;33780;51.034;7.120;2024-01-16T05:01:20;100133.91;;;2.49;76.21
48015;BME280;33780;51.034;7.120;2024-01-16T05:03:46;100132.13;;;2.49;76.09
48015;BME280;33780;51.034;7.120;2024-01-16T05:06:15;100135.50;;;2.51;76.48
48015;BME280;33780;51.034;7.120;2024-01-16T05:08:41;100124.88;;;2.53;76.43
48015;BME280;33780;51.034;7.120;2024-01-16T05:11:07;100132.81;;;2.53;75.90
48015;BME280;33780;51.034;7.120;2024-01-16T05:13:32;100127.53;;;2.53;75.93
48015;BME280;33780;51.034;7.120;2024-01-16T05:15:57;100128.38;;;2.53;76.18
48015;BME280;33780;51.034;7.120;2024-01-16T05:18:22;100120.34;;;2.55;75.69
48015;BME280;33780;51.034;7.120;2024-01-16T05:20:48;100127.34;;;2.56;76.07
48015;BME280;33780;51.034;7.120;2024-01-16T05:23:13;100121.19;;;2.55;76.18
48015;BME280;33780;51.034;7.120;2024-01-16T05:25:38;100122.91;;;2.56;76.16
48015;BME280;33780;51.034;7.120;2024-01-16T05:28:04;100122.78;;;2.58;76.01
48015;BME280;33780;51.034;7.120;2024-01-16T05:30:29;100116.56;;;2.59;76.27
48015;BME280;33780;51.034;7.120;2024-01-16T05:32:55;100117.31;;;2.61;76.54
48015;BME280;33780;51.034;7.120;2024-01-16T05:35:21;100114.78;;;2.59;76.30
48015;BME280;33780;51.034;7.120;2024-01-16T05:37:46;100116.56;;;2.59;76.38
48015;BME280;33780;51.034;7.120;2024-01-16T05:40:11;100115.72;;;2.58;76.14
48015;BME280;33780;51.034;7.120;2024-01-16T05:42:37;100116.66;;;2.57;76.31
48015;BME280;33780;51.034;7.120;2024-01-16T05:45:03;100116.75;;;2.56;76.32
48015;BME280;33780;51.034;7.120;2024-01-16T05:47:28;100107.25;;;2.53;76.61
48015;BME280;33780;51.034;7.120;2024-01-16T05:49:55;100110.72;;;2.54;76.04
48015;BME280;33780;51.034;7.120;2024-01-16T05:52:21;100111.69;;;2.53;76.63
48015;BME280;33780;51.034;7.120;2024-01-16T05:54:47;100103.75;;;2.53;76.18
48015;BME280;33780;51.034;7.120;2024-01-16T05:57:12;100102.06;;;2.52;76.87
48015;BME280;33780;51.034;7.120;2024-01-16T05:59:37;100096.78;;;2.52;76.68
48015;BME280;33780;51.034;7.120;2024-01-16T06:02:03;100096.78;;;2.52;76.79
48015;BME280;33780;51.034;7.120;2024-01-16T06:04:28;100100.28;;;2.52;76.78
48015;BME280;33780;51.034;7.120;2024-01-16T06:06:53;100095.06;;;2.51;76.53
48015;BME280;33780;51.034;7.120;2024-01-16T06:09:19;100091.56;;;2.50;76.47
48015;BME280;33780;51.034;7.120;2024-01-16T06:11:44;100093.25;;;2.51;76.69
48015;BME280;33780;51.034;7.120;2024-01-16T06:14:09;100095.91;;;2.51;76.77
48015;BME280;33780;51.034;7.120;2024-01-16T06:16:35;100089.78;;;2.51;76.78
48015;BME280;33780;51.034;7.120;2024-01-16T06:19:01;100098.53;;;2.51;76.67
48015;BME280;33780;51.034;7.120;2024-01-16T06:21:26;100096.78;;;2.52;76.33
48015;BME280;33780;51.034;7.120;2024-01-16T06:23:52;100095.00;;;2.52;76.52
48015;BME280;33780;51.034;7.120;2024-01-16T06:26:17;100105.56;;;2.52;75.96
48015;BME280;33780;51.034;7.120;2024-01-16T06:28:43;100102.06;;;2.52;76.24
48015;BME280;33780;51.034;7.120;2024-01-16T06:31:09;100108.19;;;2.52;76.10
48015;BME280;33780;51.034;7.120;2024-01-16T06:33:34;100110.00;;;2.52;76.06
48015;BME280;33780;51.034;7.120;2024-01-16T06:36:00;100110.84;;;2.52;75.62
48015;BME280;33780;51.034;7.120;2024-01-16T06:38:26;100109.09;;;2.51;75.32
48015;BME280;33780;51.034;7.120;2024-01-16T06:40:51;100110.00;;;2.52;75.66
48015;BME280;33780;51.034;7.120;2024-01-16T06:43:18;100105.56;;;2.52;75.34
48015;BME280;33780;51.034;7.120;2024-01-16T06:45:43;100107.34;;;2.52;75.57
48015;BME280;33780;51.034;7.120;2024-01-16T06:48:09;100101.19;;;2.51;75.76
48015;BME280;33780;51.034;7.120;2024-01-16T06:50:34;100103.75;;;2.53;75.05
48015;BME280;33780;51.034;7.120;2024-01-16T06:52:59;100105.44;;;2.54;75.06
48015;BME280;33780;51.034;7.120;2024-01-16T06:55:26;100107.25;;;2.53;74.79
48015;BME280;33780;51.034;7.120;2024-01-16T06:57:51;100115.91;;;2.55;75.59
48015;BME280;33780;51.034;7.120;2024-01-16T07:00:17;100108.84;;;2.56;75.03
48015;BME280;33780;51.034;7.120;2024-01-16T07:02:42;100114.97;;;2.56;75.30
48015;BME280;33780;51.034;7.120;2024-01-16T07:05:11;100116.75;;;2.56;74.65
48015;BME280;33780;51.034;7.120;2024-01-16T07:07:36;100115.91;;;2.55;74.78
48015;BME280;33780;51.034;7.120;2024-01-16T07:10:02;100115.06;;;2.55;75.11
48015;BME280;33780;51.034;7.120;2024-01-16T07:12:28;100121.19;;;2.55;74.65
48015;BME280;33780;51.034;7.120;2024-01-16T07:14:53;100122.06;;;2.56;75.17
48015;BME280;33780;51.034;7.120;2024-01-16T07:17:18;100127.34;;;2.56;74.98
48015;BME280;33780;51.034;7.120;2024-01-16T07:19:44;100136.00;;;2.58;74.83
48015;BME280;33780;51.034;7.120;2024-01-16T07:22:09;100134.22;;;2.58;74.91
48015;BME280;33780;51.034;7.120;2024-01-16T07:24:34;100140.44;;;2.57;74.64
48015;BME280;33780;51.034;7.120;2024-01-16T07:26:59;100142.13;;;2.58;74.84
48015;BME280;33780;51.034;7.120;2024-01-16T07:29:25;100142.13;;;2.58;74.95
48015;BME280;33780;51.034;7.120;2024-01-16T07:31:50;100140.44;;;2.57;73.99
48015;BME280;33780;51.034;7.120;2024-01-16T07:34:15;100144.03;;;2.56;74.00
48015;BME280;33780;51.034;7.120;2024-01-16T07:36:46;100146.66;;;2.56;74.32
48015;BME280;33780;51.034;7.120;2024-01-16T07:39:11;100141.38;;;2.56;74.41
48015;BME280;33780;51.034;7.120;2024-01-16T07:41:36;100137.78;;;2.57;74.26
48015;BME280;33780;51.034;7.120;2024-01-16T07:44:01;100143.94;;;2.58;74.10
48015;BME280;33780;51.034;7.120;2024-01-16T07:46:27;100141.38;;;2.56;74.49
48015;BME280;33780;51.034;7.120;2024-01-16T07:48:53;100146.56;;;2.58;74.50
48015;BME280;33780;51.034;7.120;2024-01-16T07:51:18;100148.25;;;2.59;73.99
48015;BME280;33780;51.034;7.120;2024-01-16T07:53:44;100141.28;;;2.58;74.44
48015;BME280;33780;51.034;7.120;2024-01-16T07:56:09;100147.50;;;2.57;73.88
48015;BME280;33780;51.034;7.120;2024-01-16T07:58:34;100148.25;;;2.59;74.18
48015;BME280;33780;51.034;7.120;2024-01-16T08:01:00;100149.09;;;2.59;74.13
48015;BME280;33780;51.034;7.120;2024-01-16T08:03:26;100152.59;;;2.60;73.75
48015;BME280;33780;51.034;7.120;2024-01-16T08:05:51;100154.28;;;2.61;74.00
48015;BME280;33780;51.034;7.120;2024-01-16T08:08:16;100153.25;;;2.63;73.45
48015;BME280;33780;51.034;7.120;2024-01-16T08:10:41;100152.31;;;2.64;73.14
48015;BME280;33780;51.034;7.120;2024-01-16T08:13:07;100161.06;;;2.65;73.15
48015;BME280;33780;51.034;7.120;2024-01-16T08:15:33;100162.03;;;2.64;72.72
48015;BME280;33780;51.034;7.120;2024-01-16T08:17:59;100157.50;;;2.66;72.22
48015;BME280;33780;51.034;7.120;2024-01-16T08:20:25;100160.03;;;2.67;73.19
48015;BME280;33780;51.034;7.120;2024-01-16T08:22:50;100161.66;;;2.70;72.66
48015;BME280;33780;51.034;7.120;2024-01-16T08:25:15;100159.03;;;2.70;72.38
48015;BME280;33780;51.034;7.120;2024-01-16T08:27:41;100161.66;;;2.70;72.08
48015;BME280;33780;51.034;7.120;2024-01-16T08:30:07;100161.66;;;2.70;72.12
48015;BME280;33780;51.034;7.120;2024-01-16T08:32:33;100166.00;;;2.71;72.34
48015;BME280;33780;51.034;7.120;2024-01-16T08:34:58;100169.50;;;2.71;72.04
48015;BME280;33780;51.034;7.120;2024-01-16T08:37:23;100171.28;;;2.71;71.47
48015;BME280;33780;51.034;7.120;2024-01-16T08:39:50;100171.38;;;2.69;71.13
48015;BME280;33780;51.034;7.120;2024-01-16T08:42:15;100181.84;;;2.71;71.33
48015;BME280;33780;51.034;7.120;2024-01-16T08:44:42;100180.06;;;2.71;71.11
48015;BME280;33780;51.034;7.120;2024-01-16T08:47:08;100187.03;;;2.72;70.60
48015;BME280;33780;51.034;7.120;2024-01-16T08:49:33;100188.84;;;2.72;69.33
48015;BME280;33780;51.034;7.120;2024-01-16T08:51:58;100184.41;;;2.72;70.10
48015;BME280;33780;51.034;7.120;2024-01-16T08:54:24;100195.72;;;2.75;70.50
48015;BME280;33780;51.034;7.120;2024-01-16T08:56:51;100194.66;;;2.77;69.84
48015;BME280;33780;51.034;7.120;2024-01-16T08:59:16;100181.38;;;2.79;70.06
48015;BME280;33780;51.034;7.120;2024-01-16T09:01:41;100183.91;;;2.80;70.09
48015;BME280;33780;51.034;7.120;2024-01-16T09:04:07;100181.25;;;2.80;69.93
48015;BME280;33780;51.034;7.120;2024-01-16T09:06:32;100176.81;;;2.81;69.30
48015;BME280;33780;51.034;7.120;2024-01-16T09:08:57;100184.56;;;2.84;69.62
48015;BME280;33780;51.034;7.120;2024-01-16T09:11:23;100180.81;;;2.88;69.34
48015;BME280;33780;51.034;7.120;2024-01-16T09:13:48;100178.06;;;2.89;69.57
48015;BME280;33780;51.034;7.120;2024-01-16T09:16:13;100177.75;;;2.94;68.96
48015;BME280;33780;51.034;7.120;2024-01-16T09:18:40;100175.97;;;2.94;67.89
48015;BME280;33780;51.034;7.120;2024-01-16T09:21:05;100181.25;;;2.94;68.20
48015;BME280;33780;51.034;7.120;2024-01-16T09:23:31;100181.25;;;2.94;68.68
48015;BME280;33780;51.034;7.120;2024-01-16T09:25:56;100181.16;;;2.96;68.49
48015;BME280;33780;51.034;7.120;2024-01-16T09:28:21;100189.00;;;2.97;68.60
48015;BME280;33780;51.034;7.120;2024-01-16T09:30:47;100187.19;;;2.98;68.29
48015;BME280;33780;51.034;7.120;2024-01-16T09:33:12;100187.19;;;2.98;68.21
48015;BME280;33780;51.034;7.120;2024-01-16T09:35:38;100193.22;;;3.00;67.66
48015;BME280;33780;51.034;7.120;2024-01-16T09:38:03;100187.09;;;2.99;67.48
48015;BME280;33780;51.034;7.120;2024-01-16T09:40:32;100187.94;;;3.00;67.82
48015;BME280;33780;51.034;7.120;2024-01-16T09:42:57;100195.75;;;3.01;67.66
48015;BME280;33780;51.034;7.120;2024-01-16T09:45:24;100195.03;;;2.99;66.60
48015;BME280;33780;51.034;7.120;2024-01-16T09:47:51;100194.16;;;2.99;66.42
48015;BME280;33780;51.034;7.120;2024-01-16T09:50:18;100189.72;;;2.99;66.45
48015;BME280;33780;51.034;7.120;2024-01-16T09:52:46;100193.22;;;3.00;66.46
48015;BME280;33780;51.034;7.120;2024-01-16T09:55:13;100181.72;;;3.01;66.58
48015;BME280;33780;51.034;7.120;2024-01-16T09:57:39;100182.56;;;3.01;65.70
48015;BME280;33780;51.034;7.120;2024-01-16T10:00:07;100182.56;;;3.01;66.08
48015;BME280;33780;51.034;7.120;2024-01-16T10:02:38;100178.13;;;3.02;65.64
48015;BME280;33780;51.034;7.120;2024-01-16T10:05:03;100179.91;;;3.01;65.91
48015;BME280;33780;51.034;7.120;2024-01-16T10:07:30;100178.22;;;3.00;65.51
48015;BME280;33780;51.034;7.120;2024-01-16T10:09:57;100192.28;;;3.01;65.44
48015;BME280;33780;51.034;7.120;2024-01-16T10:12:23;100181.72;;;3.01;65.74
48015;BME280;33780;51.034;7.120;2024-01-16T10:14:49;100179.81;;;3.03;64.38
48015;BME280;33780;51.034;7.120;2024-01-16T10:17:17;100176.31;;;3.02;64.90
48015;BME280;33780;51.034;7.120;2024-01-16T10:19:52;100179.16;;;2.99;64.34
48015;BME280;33780;51.034;7.120;2024-01-16T10:22:21;100184.44;;;2.99;64.79
48015;BME280;33780;51.034;7.120;2024-01-16T10:24:48;100167.66;;;3.00;65.02
48015;BME280;33780;51.034;7.120;2024-01-16T10:27:15;100164.91;;;3.02;65.13
48015;BME280;33780;51.034;7.120;2024-01-16T10:29:55;100171.88;;;3.03;65.26
48015;BME280;33780;51.034;7.120;2024-01-16T10:32:30;100156.88;;;3.03;64.95
48015;BME280;33780;51.034;7.120;2024-01-16T10:35:09;100154.44;;;3.00;65.21
48015;BME280;33780;51.034;7.120;2024-01-16T10:37:51;100149.34;;;2.97;65.08
48015;BME280;33780;51.034;7.120;2024-01-16T10:40:18;100148.50;;;2.97;64.80
48015;BME280;33780;51.034;7.120;2024-01-16T10:42:45;100147.53;;;2.98;64.53
48015;BME280;33780;51.034;7.120;2024-01-16T10:45:17;100142.25;;;2.98;65.14
48015;BME280;33780;51.034;7.120;2024-01-16T10:47:45;100132.53;;;2.98;63.68
48015;BME280;33780;51.034;7.120;2024-01-16T10:50:11;100135.19;;;2.98;64.14
48015;BME280;33780;51.034;7.120;2024-01-16T10:52:46;100129.91;;;2.98;63.96
48015;BME280;33780;51.034;7.120;2024-01-16T10:55:18;100122.81;;;2.99;63.13
48015;BME280;33780;51.034;7.120;2024-01-16T10:57:44;100130.63;;;3.00;63.78
48015;BME280;33780;51.034;7.120;2024-01-16T11:00:12;100132.22;;;3.03;64.05
48015;BME280;33780;51.034;7.120;2024-01-16T11:02:43;100127.78;;;3.03;63.18
48015;BME280;33780;51.034;7.120;2024-01-16T11:05:13;100129.31;;;3.08;63.88
48015;BME280;33780;51.034;7.120;2024-01-16T11:07:41;100124.69;;;3.11;62.76
48015;BME280;33780;51.034;7.120;2024-01-16T11:10:08;100125.53;;;3.12;63.18
48015;BME280;33780;51.034;7.120;2024-01-16T11:12:35;100119.28;;;3.13;62.70
48015;BME280;33780;51.034;7.120;2024-01-16T11:15:03;100117.28;;;3.16;63.25
48015;BME280;33780;51.034;7.120;2024-01-16T11:17:33;100116.34;;;3.17;62.60
48015;BME280;33780;51.034;7.120;2024-01-16T11:20:00;100112.94;;;3.15;61.03
48015;BME280;33780;51.034;7.120;2024-01-16T11:22:26;100115.50;;;3.17;62.58
48015;BME280;33780;51.034;7.120;2024-01-16T11:25:13;100122.38;;;3.19;62.51
48015;BME280;33780;51.034;7.120;2024-01-16T11:27:40;100114.22;;;3.22;62.55
48015;BME280;33780;51.034;7.120;2024-01-16T11:30:10;100112.25;;;3.26;62.80
48015;BME280;33780;51.034;7.120;2024-01-16T11:32:40;100116.50;;;3.28;62.14
48015;BME280;33780;51.034;7.120;2024-01-16T11:35:07;100121.78;;;3.28;61.86
48015;BME280;33780;51.034;7.120;2024-01-16T11:37:33;100116.41;;;3.30;62.25
48015;BME280;33780;51.034;7.120;2024-01-16T11:42:42;100125.19;;;3.30;61.49
48015;BME280;33780;51.034;7.120;2024-01-16T11:45:08;100122.63;;;3.29;61.54
48015;BME280;33780;51.034;7.120;2024-01-16T11:48:16;100137.00;;;3.25;59.86
48015;BME280;33780;51.034;7.120;2024-01-16T11:50:42;100137.19;;;3.22;60.21
48015;BME280;33780;51.034;7.120;2024-01-16T11:53:08;100121.53;;;3.19;60.49
48015;BME280;33780;51.034;7.120;2024-01-16T12:01:10;100098.00;;;3.28;61.05
48015;BME280;33780;51.034;7.120;2024-01-16T12:03:37;100093.78;;;3.39;61.85
48015;BME280;33780;51.034;7.120;2024-01-16T12:06:02;100088.84;;;3.47;60.90
48015;BME280;33780;51.034;7.120;2024-01-16T12:08:31;100086.72;;;3.52;60.75
48015;BME280;33780;51.034;7.120;2024-01-16T12:10:56;100090.22;;;3.52;60.57
48015;BME280;33780;51.034;7.120;2024-01-16T12:13:22;100088.94;;;3.58;61.09
48015;BME280;33780;51.034;7.120;2024-01-16T12:15:48;100078.28;;;3.59;61.06
48015;BME280;33780;51.034;7.120;2024-01-16T12:18:19;100077.97;;;3.64;60.54
48015;BME280;33780;51.034;7.120;2024-01-16T12:20:44;100078.81;;;3.64;60.40
48015;BME280;33780;51.034;7.120;2024-01-16T12:23:10;100075.44;;;3.62;60.20
48015;BME280;33780;51.034;7.120;2024-01-16T12:25:37;100070.78;;;3.66;60.27
48015;BME280;33780;51.034;7.120;2024-01-16T12:28:03;100055.75;;;3.67;59.98
48015;BME280;33780;51.034;7.120;2024-01-16T12:30:31;100054.81;;;3.68;60.14
48015;BME280;33780;51.034;7.120;2024-01-16T12:33:06;100047.59;;;3.70;59.40
48015;BME280;33780;51.034;7.120;2024-01-16T12:35:41;100052.78;;;3.71;59.69
48015;BME280;33780;51.034;7.120;2024-01-16T12:38:11;100047.38;;;3.73;59.39
48015;BME280;33780;51.034;7.120;2024-01-16T12:40:49;100039.44;;;3.73;60.01
48015;BME280;33780;51.034;7.120;2024-01-16T12:43:17;100043.69;;;3.75;59.05
48015;BME280;33780;51.034;7.120;2024-01-16T12:45:43;100041.03;;;3.75;58.69
48015;BME280;33780;51.034;7.120;2024-01-16T12:48:09;100037.66;;;3.73;59.24
48015;BME280;33780;51.034;7.120;2024-01-16T12:50:35;100035.09;;;3.72;59.12
48015;BME280;33780;51.034;7.120;2024-01-16T12:53:02;100027.28;;;3.70;59.06
48015;BME280;33780;51.034;7.120;2024-01-16T12:55:29;100034.69;;;3.65;58.26
48015;BME280;33780;51.034;7.120;2024-01-16T13:00:48;100028.88;;;3.60;59.27
48015;BME280;33780;51.034;7.120;2024-01-16T13:03:18;100025.78;;;3.53;57.73
48015;BME280;33780;51.034;7.120;2024-01-16T13:05:44;100027.78;;;3.50;58.59